Time,TemperatureF,DewpointF,PressureIn,WindDirection,WindDirectionDegrees,WindSpeedMPH,WindSpeedGustMPH,Humidity,HourlyPrecipIn,Conditions,Clouds,dailyrainin,SoftwareType,DateUTC
2013-08-09 00:16:00,64.9,64.0,29.95,ESE,112,2.7,-999.0,97,-99.99,,,0.00,Acu-Link.com,2013-08-09 04:16:00,
2013-08-09 00:31:00,64.9,64.0,29.95,East,90,2.7,-999.0,97,-99.99,,,0.00,Acu-Link.com,2013-08-09 04:31:00,
2013-08-09 00:46:00,64.8,63.9,29.94,SSE,157,1.7,-999.0,97,-99.99,,,0.00,Acu-Link.com,2013-08-09 04:46:00,
2013-08-09 01:01:00,64.8,63.9,29.94,NE,45,2.7,-999.0,97,-99.99,,,0.00,Acu-Link.com,2013-08-09 05:01:00,
2013-08-09 01:16:00,64.9,64.0,29.93,ESE,112,3.2,-999.0,97,-99.99,,,0.00,Acu-Link.com,2013-08-09 05:16:00,
2013-08-09 01:32:00,64.8,63.9,29.94,ENE,67,2.2,-999.0,97,-99.99,,,0.00,Acu-Link.com,2013-08-09 05:32:00,
2013-08-09 01:47:00,64.4,63.5,29.93,NNE,22,0.0,-999.0,97,-99.99,,,0.00,Acu-Link.com,2013-08-09 05:47:00,
2013-08-09 02:02:00,64.4,63.5,29.93,ESE,112,2.7,-999.0,97,-99.99,,,0.00,Acu-Link.com,2013-08-09 06:02:00,
2013-08-09 02:17:00,64.4,63.8,29.92,ESE,112,0.0,-999.0,98,-99.99,,,0.00,Acu-Link.com,2013-08-09 06:17:00,
2013-08-09 02:32:00,64.4,63.8,29.91,SSE,157,2.2,-999.0,98,-99.99,,,0.00,Acu-Link.com,2013-08-09 06:32:00,
2013-08-09 02:48:00,64.4,63.8,29.90,NNE,22,0.0,-999.0,98,-99.99,,,0.00,Acu-Link.com,2013-08-09 06:48:00,
2013-08-09 03:03:00,64.0,63.4,29.90,East,90,1.7,-999.0,98,-99.99,,,0.00,Acu-Link.com,2013-08-09 07:03:00,
2013-08-09 03:18:00,64.2,63.6,29.90,SE,135,2.7,-999.0,98,-99.99,,,0.00,Acu-Link.com,2013-08-09 07:18:00,
2013-08-09 03:34:00,64.9,64.6,29.90,ESE,112,3.2,-999.0,99,-99.99,,,0.00,Acu-Link.com,2013-08-09 07:34:00,
2013-08-09 03:49:00,65.3,65.0,29.89,East,90,3.7,-999.0,99,-99.99,,,0.00,Acu-Link.com,2013-08-09 07:49:00,
2013-08-09 04:04:00,65.3,65.0,29.90,WSW,247,2.2,-999.0,99,-99.99,,,0.00,Acu-Link.com,2013-08-09 08:04:00,
2013-08-09 04:19:00,65.3,65.0,29.90,ESE,112,3.7,-999.0,99,-99.99,,,0.00,Acu-Link.com,2013-08-09 08:19:00,
2013-08-09 04:37:00,65.3,65.0,29.90,East,90,2.7,-999.0,99,-99.99,,,0.00,Acu-Link.com,2013-08-09 08:37:00,
2013-08-09 04:52:00,65.3,65.0,29.91,NNE,22,1.7,-999.0,99,-99.99,,,0.01,Acu-Link.com,2013-08-09 08:52:00,
2013-08-09 05:07:00,65.3,65.0,29.91,NE,45,2.2,-999.0,99,-99.99,,,0.08,Acu-Link.com,2013-08-09 09:07:00,
2013-08-09 05:22:00,65.1,64.8,29.90,West,270,0.0,-999.0,99,-99.99,,,0.09,Acu-Link.com,2013-08-09 09:22:00,
2013-08-09 05:37:00,65.1,64.8,29.91,ESE,112,2.7,-999.0,99,-99.99,,,0.15,Acu-Link.com,2013-08-09 09:37:00,
2013-08-09 05:52:00,65.1,64.8,29.91,SW,225,0.0,-999.0,99,-99.99,,,0.22,Acu-Link.com,2013-08-09 09:52:00,
2013-08-09 06:07:00,65.3,65.0,29.89,ESE,112,3.2,-999.0,99,-99.99,,,0.23,Acu-Link.com,2013-08-09 10:07:00,
2013-08-09 06:23:00,65.3,65.0,29.87,ENE,67,4.7,-999.0,99,-99.99,,,0.23,Acu-Link.com,2013-08-09 10:23:00,
2013-08-09 06:38:00,65.1,64.8,29.88,NE,45,1.7,-999.0,99,-99.99,,,0.24,Acu-Link.com,2013-08-09 10:38:00,
2013-08-09 06:53:00,65.1,64.8,29.87,NE,45,0.0,-999.0,99,-99.99,,,0.24,Acu-Link.com,2013-08-09 10:53:00,
2013-08-09 07:08:00,65.1,64.8,29.88,ESE,112,1.1,-999.0,99,-99.99,,,0.24,Acu-Link.com,2013-08-09 11:08:00,
2013-08-09 07:24:00,65.1,64.8,29.86,West,270,0.0,-999.0,99,-99.99,,,0.24,Acu-Link.com,2013-08-09 11:24:00,
2013-08-09 07:39:00,65.1,64.8,29.88,NE,45,0.0,-999.0,99,-99.99,,,0.24,Acu-Link.com,2013-08-09 11:39:00,
2013-08-09 07:54:00,65.3,64.7,29.87,ESE,112,3.7,-999.0,98,-99.99,,,0.24,Acu-Link.com,2013-08-09 11:54:00,
2013-08-09 08:09:00,64.8,64.2,29.88,SSE,157,2.2,-999.0,98,-99.99,,,0.24,Acu-Link.com,2013-08-09 12:09:00,
2013-08-09 08:25:00,66.0,65.4,29.87,WSW,247,1.7,-999.0,98,-99.99,,,0.24,Acu-Link.com,2013-08-09 12:25:00,
2013-08-09 08:40:00,66.7,65.8,29.87,East,90,1.7,-999.0,97,-99.99,,,0.24,Acu-Link.com,2013-08-09 12:40:00,
2013-08-09 08:55:00,67.1,66.2,29.86,SSE,157,0.0,-999.0,97,-99.99,,,0.24,Acu-Link.com,2013-08-09 12:55:00,
2013-08-09 09:10:00,67.6,66.4,29.86,West,270,0.0,-999.0,96,-99.99,,,0.24,Acu-Link.com,2013-08-09 13:10:00,
2013-08-09 09:26:00,68.2,66.7,29.86,South,180,0.0,-999.0,95,-99.99,,,0.24,Acu-Link.com,2013-08-09 13:26:00,
2013-08-09 09:41:00,68.4,66.6,29.86,West,270,0.0,-999.0,94,-99.99,,,0.24,Acu-Link.com,2013-08-09 13:41:00,
2013-08-09 09:56:00,69.8,67.4,29.85,West,270,0.0,-999.0,92,-99.99,,,0.24,Acu-Link.com,2013-08-09 13:56:00,
2013-08-09 10:11:00,70.0,67.6,29.85,East,90,2.7,-999.0,92,-99.99,,,0.25,Acu-Link.com,2013-08-09 14:11:00,
2013-08-09 10:26:00,69.4,67.3,29.84,ESE,112,3.2,-999.0,93,-99.99,,,0.25,Acu-Link.com,2013-08-09 14:26:00,
2013-08-09 10:45:00,68.9,67.1,29.85,ESE,112,0.0,-999.0,94,-99.99,,,0.26,Acu-Link.com,2013-08-09 14:45:00,
2013-08-09 11:00:00,69.3,67.8,29.83,ESE,112,0.0,-999.0,95,-99.99,,,0.27,Acu-Link.com,2013-08-09 15:00:00,
2013-08-09 11:15:00,70.2,68.1,29.82,SSW,202,2.2,-999.0,93,-99.99,,,0.27,Acu-Link.com,2013-08-09 15:15:00,
2013-08-09 11:37:00,71.1,68.3,29.82,ENE,67,1.1,-999.0,91,-99.99,,,0.27,Acu-Link.com,2013-08-09 15:37:00,
2013-08-09 11:53:00,71.4,68.6,29.80,SSW,202,1.7,-999.0,91,-99.99,,,0.27,Acu-Link.com,2013-08-09 15:53:00,
2013-08-09 12:11:00,71.4,68.6,29.82,ESE,112,3.2,-999.0,91,-99.99,,,0.27,Acu-Link.com,2013-08-09 16:11:00,
2013-08-09 12:28:00,73.0,69.6,29.80,ESE,112,0.0,-999.0,89,-99.99,,,0.27,Acu-Link.com,2013-08-09 16:28:00,
2013-08-09 12:43:00,74.1,69.3,29.80,SSE,157,2.2,-999.0,85,-99.99,,,0.27,Acu-Link.com,2013-08-09 16:43:00,
2013-08-09 13:01:00,74.1,70.0,29.80,ESE,112,2.2,-999.0,87,-99.99,,,0.27,Acu-Link.com,2013-08-09 17:01:00,
2013-08-09 13:16:00,72.0,68.2,29.80,East,90,0.0,-999.0,88,-99.99,,,0.27,Acu-Link.com,2013-08-09 17:16:00,
2013-08-09 13:32:00,70.0,67.6,29.81,SSW,202,2.2,-999.0,92,-99.99,,,0.31,Acu-Link.com,2013-08-09 17:32:00,
2013-08-09 13:47:00,69.8,67.7,29.80,West,270,1.7,-999.0,93,-99.99,,,0.31,Acu-Link.com,2013-08-09 17:47:00,
2013-08-09 14:03:00,70.9,67.8,29.78,West,270,1.7,-999.0,90,-99.99,,,0.31,Acu-Link.com,2013-08-09 18:03:00,
2013-08-09 14:21:00,71.4,68.0,29.79,NNE,22,1.7,-999.0,89,-99.99,,,0.31,Acu-Link.com,2013-08-09 18:21:00,
2013-08-09 14:36:00,70.5,67.7,29.79,WSW,247,3.2,-999.0,91,-99.99,,,0.31,Acu-Link.com,2013-08-09 18:36:00,
2013-08-09 14:52:00,70.5,67.7,29.78,ESE,112,2.7,-999.0,91,-99.99,,,0.31,Acu-Link.com,2013-08-09 18:52:00,
2013-08-09 15:07:00,70.2,67.4,29.77,East,90,3.2,-999.0,91,-99.99,,,0.31,Acu-Link.com,2013-08-09 19:07:00,
2013-08-09 15:25:00,69.3,66.9,29.77,ESE,112,3.7,-999.0,92,-99.99,,,0.32,Acu-Link.com,2013-08-09 19:25:00,
2013-08-09 15:41:00,69.3,67.2,29.77,ESE,112,0.0,-999.0,93,-99.99,,,0.33,Acu-Link.com,2013-08-09 19:41:00,
2013-08-09 15:57:00,70.0,67.6,29.77,SSW,202,0.0,-999.0,92,-99.99,,,0.33,Acu-Link.com,2013-08-09 19:57:00,
2013-08-09 16:12:00,70.7,68.3,29.76,ENE,67,0.0,-999.0,92,-99.99,,,0.33,Acu-Link.com,2013-08-09 20:12:00,
2013-08-09 16:27:00,70.2,67.8,29.76,ESE,112,2.7,-999.0,92,-99.99,,,0.33,Acu-Link.com,2013-08-09 20:27:00,
2013-08-09 16:42:00,69.4,67.3,29.75,SE,135,2.2,-999.0,93,-99.99,,,0.34,Acu-Link.com,2013-08-09 20:42:00,
2013-08-09 16:58:00,69.1,67.0,29.74,ESE,112,4.7,-999.0,93,-99.99,,,0.34,Acu-Link.com,2013-08-09 20:58:00,
2013-08-09 17:13:00,69.4,67.0,29.75,ESE,112,2.7,-999.0,92,-99.99,,,0.34,Acu-Link.com,2013-08-09 21:13:00,
2013-08-09 17:28:00,69.8,67.0,29.74,ESE,112,2.2,-999.0,91,-99.99,,,0.34,Acu-Link.com,2013-08-09 21:28:00,
2013-08-09 17:43:00,69.8,66.7,29.72,ESE,112,3.2,-999.0,90,-99.99,,,0.34,Acu-Link.com,2013-08-09 21:43:00,
2013-08-09 17:58:00,69.3,66.9,29.70,North,0,2.2,-999.0,92,-99.99,,,0.34,Acu-Link.com,2013-08-09 21:58:00,
2013-08-09 18:14:00,68.9,66.5,29.72,ESE,112,0.0,-999.0,92,-99.99,,,0.34,Acu-Link.com,2013-08-09 22:14:00,
2013-08-09 18:29:00,71.1,68.0,29.71,WNW,292,1.7,-999.0,90,-99.99,,,0.34,Acu-Link.com,2013-08-09 22:29:00,
2013-08-09 18:44:00,71.1,67.4,29.69,SW,225,0.0,-999.0,88,-99.99,,,0.34,Acu-Link.com,2013-08-09 22:44:00,
2013-08-09 18:59:00,70.3,66.9,29.70,West,270,2.2,-999.0,89,-99.99,,,0.34,Acu-Link.com,2013-08-09 22:59:00,
2013-08-09 21:00:00,64.9,63.7,29.72,WNW,292,0.0,-999.0,96,-99.99,,,0.34,Acu-Link.com,2013-08-10 01:00:00,
2013-08-09 21:15:00,65.1,64.5,29.72,East,90,2.2,-999.0,98,-99.99,,,0.34,Acu-Link.com,2013-08-10 01:15:00,
2013-08-09 21:30:00,64.6,64.0,29.73,WNW,292,0.0,-999.0,98,-99.99,,,0.34,Acu-Link.com,2013-08-10 01:30:00,
2013-08-09 21:46:00,64.4,63.8,29.71,West,270,0.0,-999.0,98,-99.99,,,0.34,Acu-Link.com,2013-08-10 01:46:00,
2013-08-09 22:01:00,64.8,64.5,29.72,West,270,1.1,-999.0,99,-99.99,,,0.34,Acu-Link.com,2013-08-10 02:01:00,
2013-08-09 22:16:00,64.6,64.3,29.71,NW,315,0.0,-999.0,99,-99.99,,,0.34,Acu-Link.com,2013-08-10 02:16:00,
2013-08-09 22:31:00,65.3,65.0,29.71,West,270,0.0,-999.0,99,-99.99,,,0.34,Acu-Link.com,2013-08-10 02:31:00,
2013-08-09 22:46:00,65.3,65.0,29.71,West,270,1.1,-999.0,99,-99.99,,,0.34,Acu-Link.com,2013-08-10 02:46:00,
2013-08-09 23:02:00,65.7,65.4,29.70,NW,315,0.0,-999.0,99,-99.99,,,0.34,Acu-Link.com,2013-08-10 03:02:00,
2013-08-09 23:17:00,65.7,65.4,29.70,West,270,3.7,-999.0,99,-99.99,,,0.34,Acu-Link.com,2013-08-10 03:17:00,
2013-08-09 23:32:00,65.8,65.5,29.70,West,270,2.2,-999.0,99,-99.99,,,0.34,Acu-Link.com,2013-08-10 03:32:00,
2013-08-09 23:47:00,65.8,65.5,29.71,WNW,292,4.7,-999.0,99,-99.99,,,0.34,Acu-Link.com,2013-08-10 03:47:00,